createdAt,value
2018-04-24T00:01:02.589Z,55.00
2018-04-24T00:03:33.549Z,55.00
2018-04-24T00:06:02.618Z,55.10
2018-04-24T00:08:31.036Z,55.10
2018-04-24T00:11:00.089Z,55.10
2018-04-24T00:13:28.489Z,55.10
2018-04-24T00:15:56.793Z,55.40
2018-04-24T00:18:25.174Z,55.10
2018-04-24T00:20:53.529Z,54.90
2018-04-24T00:23:21.922Z,55.30
2018-04-24T00:25:50.988Z,54.20
2018-04-24T00:28:20.793Z,54.30
2018-04-24T00:30:49.127Z,54.10
2018-04-24T00:33:17.460Z,55.30
2018-04-24T00:35:45.810Z,54.40
2018-04-24T00:38:14.218Z,54.20
2018-04-24T00:40:43.524Z,53.70
2018-04-24T00:43:12.597Z,53.70
2018-04-24T00:45:40.922Z,53.00
2018-04-24T00:48:09.986Z,53.50
2018-04-24T00:50:38.273Z,53.50
2018-04-24T00:53:25.334Z,53.70
2018-04-24T00:55:54.650Z,53.10
2018-04-24T00:58:23.003Z,53.00
2018-04-24T01:00:51.325Z,52.60
2018-04-24T01:03:19.645Z,52.60
2018-04-24T01:05:47.952Z,53.30
2018-04-24T01:08:16.314Z,53.10
2018-04-24T01:10:44.590Z,52.40
2018-04-24T01:13:12.854Z,52.60
2018-04-24T01:15:41.236Z,52.90
2018-04-24T01:18:09.516Z,53.10
2018-04-24T01:20:37.871Z,51.90
2018-04-24T01:23:07.022Z,52.00
2018-04-24T01:25:35.565Z,52.10
2018-04-24T01:28:03.861Z,52.50
2018-04-24T01:30:32.199Z,51.90
2018-04-24T01:33:01.506Z,52.60
2018-04-24T01:35:30.524Z,52.90
2018-04-24T01:37:58.890Z,52.90
2018-04-24T01:40:27.940Z,51.90
2018-04-24T01:42:56.389Z,51.70
2018-04-24T01:45:24.699Z,53.10
2018-04-24T01:47:52.995Z,52.20
2018-04-24T01:50:21.265Z,52.00
2018-04-24T01:52:49.576Z,52.30
2018-04-24T01:55:18.801Z,51.40
2018-04-24T01:57:47.242Z,51.40
2018-04-24T02:00:16.346Z,50.80
2018-04-24T02:02:44.802Z,50.70
2018-04-24T02:05:13.934Z,51.20
2018-04-24T02:07:42.302Z,51.10
2018-04-24T02:10:10.630Z,51.20
2018-04-24T02:12:39.000Z,51.30
2018-04-24T02:15:07.299Z,51.30
2018-04-24T02:17:35.730Z,51.40
2018-04-24T02:20:03.984Z,51.60
2018-04-24T02:22:32.325Z,50.80
2018-04-24T02:25:00.689Z,50.40
2018-04-24T02:27:30.796Z,51.00
2018-04-24T02:29:59.170Z,50.80
2018-04-24T02:32:27.555Z,51.00
2018-04-24T02:34:55.871Z,51.70
2018-04-24T02:37:24.470Z,51.70
2018-04-24T02:39:53.546Z,52.30
2018-04-24T02:42:21.884Z,52.90
2018-04-24T02:44:50.181Z,51.70
2018-04-24T02:47:18.495Z,51.90
2018-04-24T02:49:47.651Z,52.60
2018-04-24T02:52:16.070Z,52.50
2018-04-24T02:54:45.166Z,51.70
2018-04-24T02:57:15.361Z,51.90
2018-04-24T02:59:43.647Z,51.90
2018-04-24T03:02:11.959Z,52.20
2018-04-24T03:04:40.254Z,51.80
2018-04-24T03:07:08.555Z,51.80
2018-04-24T03:09:37.764Z,52.80
2018-04-24T03:12:06.095Z,52.10
2018-04-24T03:14:34.396Z,51.90
2018-04-24T03:17:02.704Z,52.40
2018-04-24T03:19:31.803Z,52.50
2018-04-24T03:22:00.860Z,53.60
2018-04-24T03:24:29.338Z,53.20
2018-04-24T03:26:57.819Z,53.40
2018-04-24T03:29:26.259Z,53.20
2018-04-24T03:31:54.639Z,53.10
2018-04-24T03:34:23.736Z,53.40
2018-04-24T03:36:52.984Z,53.60
2018-04-24T03:39:21.461Z,53.60
2018-04-24T03:41:49.780Z,53.50
2018-04-24T03:44:18.961Z,54.00
2018-04-24T03:46:47.301Z,53.90
2018-04-24T03:49:15.851Z,53.40
2018-04-24T03:51:45.045Z,53.40
2018-04-24T03:54:14.215Z,53.50
2018-04-24T03:56:42.519Z,53.50
2018-04-24T03:59:11.655Z,53.50
2018-04-24T04:01:40.057Z,53.50
2018-04-24T04:04:08.819Z,53.40
2018-04-24T04:06:37.124Z,53.50
2018-04-24T04:09:05.446Z,53.40
2018-04-24T04:11:33.776Z,53.30
2018-04-24T04:14:02.219Z,53.40
2018-04-24T04:16:30.496Z,53.50
2018-04-24T04:19:16.740Z,53.50
2018-04-24T04:22:03.824Z,53.30
2018-04-24T04:24:52.205Z,53.50
2018-04-24T04:27:20.514Z,53.50
2018-04-24T04:29:49.652Z,53.50
2018-04-24T04:32:18.161Z,53.40
2018-04-24T04:34:46.592Z,53.30
2018-04-24T04:37:14.912Z,53.40
2018-04-24T04:39:43.226Z,53.60
2018-04-24T04:42:11.950Z,53.50
2018-04-24T04:44:40.260Z,53.50
2018-04-24T04:47:08.686Z,53.50
2018-04-24T04:49:37.246Z,53.40
2018-04-24T04:52:06.853Z,53.20
2018-04-24T04:54:37.047Z,53.70
2018-04-24T04:57:05.398Z,53.70
2018-04-24T04:59:33.707Z,53.90
2018-04-24T05:02:02.035Z,54.20
2018-04-24T05:04:30.441Z,53.80
2018-04-24T05:06:58.738Z,53.50
2018-04-24T05:09:27.068Z,53.90
2018-04-24T05:11:55.404Z,53.90
2018-04-24T05:14:23.735Z,53.90
2018-04-24T05:16:52.023Z,54.00
2018-04-24T05:19:20.317Z,53.50
2018-04-24T05:21:48.621Z,53.30
2018-04-24T05:24:18.862Z,53.10
2018-04-24T05:26:47.168Z,53.00
2018-04-24T05:29:15.476Z,53.10
2018-04-24T05:31:43.812Z,53.00
2018-04-24T05:34:12.216Z,53.50
2018-04-24T05:36:40.497Z,53.90
2018-04-24T05:39:08.887Z,53.70
2018-04-24T05:41:37.322Z,53.50
2018-04-24T05:44:06.037Z,53.80
2018-04-24T05:46:34.372Z,53.30
2018-04-24T05:49:02.677Z,53.60
2018-04-24T05:51:31.047Z,53.10
2018-04-24T05:53:59.483Z,53.20
2018-04-24T05:56:28.577Z,53.40
2018-04-24T05:58:57.749Z,53.30
2018-04-24T06:01:26.075Z,53.20
2018-04-24T06:03:54.392Z,52.50
2018-04-24T06:06:22.900Z,53.40
2018-04-24T06:08:51.369Z,52.40
2018-04-24T06:11:19.688Z,52.90
2018-04-24T06:13:48.155Z,53.30
2018-04-24T06:16:17.226Z,53.60
2018-04-24T06:18:45.556Z,53.60
2018-04-24T06:21:13.950Z,53.30
2018-04-24T06:23:43.440Z,52.90
2018-04-24T06:26:11.758Z,53.10
2018-04-24T06:28:40.229Z,53.40
2018-04-24T06:31:09.121Z,53.10
2018-04-24T06:33:37.555Z,53.00
2018-04-24T06:36:05.857Z,53.30
2018-04-24T06:38:34.095Z,53.60
2018-04-24T06:41:03.315Z,53.60
2018-04-24T06:43:31.595Z,53.60
2018-04-24T06:45:59.905Z,54.10
2018-04-24T06:48:28.237Z,53.70
2018-04-24T06:50:56.640Z,53.30
2018-04-24T06:53:25.042Z,53.30
2018-04-24T06:55:53.454Z,53.70
2018-04-24T06:58:22.792Z,53.30
2018-04-24T07:00:51.158Z,53.30
2018-04-24T07:03:19.466Z,53.20
2018-04-24T07:05:47.780Z,53.10
2018-04-24T07:08:16.091Z,53.10
2018-04-24T07:10:44.492Z,52.50
2018-04-24T07:13:12.901Z,52.40
2018-04-24T07:15:41.192Z,52.40
2018-04-24T07:18:09.542Z,52.70
2018-04-24T07:20:38.056Z,52.60
2018-04-24T07:23:08.268Z,52.80
2018-04-24T07:25:38.461Z,52.90
2018-04-24T07:28:06.796Z,52.70
2018-04-24T07:30:35.103Z,52.20
2018-04-24T07:33:03.424Z,52.30
2018-04-24T07:35:31.836Z,51.90
2018-04-24T07:38:00.347Z,52.10
2018-04-24T07:40:28.966Z,52.40
2018-04-24T07:42:57.257Z,52.50
2018-04-24T07:45:26.366Z,52.50
2018-04-24T07:47:55.517Z,53.40
2018-04-24T07:50:23.936Z,53.30
2018-04-24T07:52:53.135Z,53.70
2018-04-24T07:55:22.270Z,53.80
2018-04-24T07:57:51.432Z,53.70
2018-04-24T08:00:20.578Z,53.60
2018-04-24T08:02:48.934Z,53.50
2018-04-24T08:05:17.358Z,54.10
2018-04-24T08:07:45.698Z,53.20
2018-04-24T08:10:14.012Z,53.00
2018-04-24T08:12:43.063Z,53.50
2018-04-24T08:15:11.512Z,53.50
2018-04-24T08:17:40.570Z,53.10
2018-04-24T08:20:08.921Z,53.00
2018-04-24T08:22:40.788Z,52.90
2018-04-24T08:25:09.101Z,52.50
2018-04-24T08:27:37.386Z,53.10
2018-04-24T08:30:06.466Z,52.50
2018-04-24T08:32:34.777Z,52.90
2018-04-24T08:35:03.182Z,52.40
2018-04-24T08:37:31.615Z,52.20
2018-04-24T08:40:00.883Z,52.40
2018-04-24T08:42:29.346Z,52.30
2018-04-24T08:44:57.777Z,52.90
2018-04-24T08:47:27.168Z,52.90
2018-04-24T08:49:55.514Z,52.90
2018-04-24T08:52:23.837Z,53.80
2018-04-24T08:54:53.111Z,54.30
2018-04-24T08:57:21.422Z,53.70
2018-04-24T08:59:50.474Z,53.70
2018-04-24T09:02:18.818Z,53.70
2018-04-24T09:04:49.706Z,53.60
2018-04-24T09:07:18.003Z,53.20
2018-04-24T09:09:47.222Z,53.10
2018-04-24T09:12:15.767Z,53.00
2018-04-24T09:14:44.286Z,52.60
2018-04-24T09:17:12.617Z,53.20
2018-04-24T09:19:42.497Z,54.00
2018-04-24T09:22:10.836Z,54.00
2018-04-24T09:24:39.880Z,55.30
2018-04-24T09:27:08.373Z,55.30
2018-04-24T09:29:37.424Z,53.90
2018-04-24T09:32:05.839Z,53.90
2018-04-24T09:34:35.329Z,53.30
2018-04-24T09:37:03.774Z,53.20
2018-04-24T09:39:32.830Z,53.40
2018-04-24T09:42:01.191Z,53.40
2018-04-24T09:44:29.456Z,53.90
2018-04-24T09:46:57.812Z,54.00
2018-04-24T09:49:26.212Z,54.40
2018-04-24T09:51:54.634Z,54.30
2018-04-24T09:54:22.963Z,54.70
2018-04-24T09:56:51.468Z,55.20
2018-04-24T09:59:19.775Z,56.40
2018-04-24T10:01:48.064Z,57.00
2018-04-24T10:04:17.340Z,56.90
2018-04-24T10:06:45.635Z,57.00
2018-04-24T10:09:13.954Z,57.50
2018-04-24T10:11:42.274Z,57.50
2018-04-24T10:14:10.600Z,57.30
2018-04-24T10:16:38.923Z,57.60
2018-04-24T10:19:07.396Z,57.90
2018-04-24T10:21:35.750Z,57.90
2018-04-24T10:24:04.105Z,58.20
2018-04-24T10:26:32.534Z,58.40
2018-04-24T10:29:00.826Z,58.20
2018-04-24T10:31:29.158Z,59.00
2018-04-24T10:33:57.455Z,59.30
2018-04-24T10:36:25.793Z,59.40
2018-04-24T10:38:54.137Z,59.40
2018-04-24T10:41:22.571Z,60.00
2018-04-24T10:43:51.087Z,60.30
2018-04-24T10:46:19.509Z,60.00
2018-04-24T10:48:47.894Z,60.10
2018-04-24T10:51:16.223Z,60.00
2018-04-24T10:53:44.554Z,59.80
2018-04-24T10:56:12.972Z,60.10
2018-04-24T10:58:46.656Z,60.10
2018-04-24T11:01:15.008Z,59.80
2018-04-24T11:03:43.502Z,60.00
2018-04-24T11:06:11.994Z,60.50
2018-04-24T11:08:40.396Z,60.20
2018-04-24T11:11:08.719Z,59.80
2018-04-24T11:13:37.901Z,60.10
2018-04-24T11:16:06.991Z,60.60
2018-04-24T11:18:36.341Z,60.40
2018-04-24T11:21:04.809Z,60.30
2018-04-24T11:23:33.136Z,61.00
2018-04-24T11:26:01.685Z,61.30
2018-04-24T11:28:30.294Z,60.90
2018-04-24T11:30:58.846Z,60.90
2018-04-24T11:33:27.168Z,60.30
2018-04-24T11:35:55.644Z,60.80
2018-04-24T11:38:24.260Z,61.60
2018-04-24T11:40:52.663Z,60.70
2018-04-24T11:43:21.071Z,61.10
2018-04-24T11:45:49.379Z,61.20
2018-04-24T11:48:18.481Z,60.20
2018-04-24T11:50:47.556Z,60.00
2018-04-24T11:53:15.896Z,60.10
2018-04-24T11:58:06.926Z,60.80
2018-04-24T12:00:35.481Z,60.70
2018-04-24T12:03:03.865Z,60.60
2018-04-24T12:05:32.332Z,60.10
2018-04-24T12:08:00.890Z,60.20
2018-04-24T12:10:29.366Z,59.40
2018-04-24T12:12:57.741Z,59.90
2018-04-24T12:15:26.212Z,60.30
2018-04-24T12:17:54.518Z,61.20
2018-04-24T12:20:23.619Z,61.60
2018-04-24T12:22:52.773Z,61.40
2018-04-24T12:25:21.136Z,61.40
2018-04-24T12:27:50.140Z,61.40
2018-04-24T12:30:18.478Z,61.50
2018-04-24T12:32:46.940Z,60.60
2018-04-24T12:35:16.067Z,61.40
2018-04-24T12:37:44.447Z,61.40
2018-04-24T12:40:13.023Z,61.20
2018-04-24T12:42:41.572Z,60.20
2018-04-24T12:45:10.043Z,60.40
2018-04-24T12:47:39.093Z,60.50
2018-04-24T12:50:07.567Z,60.40
2018-04-24T12:52:35.881Z,60.40
2018-04-24T12:55:04.304Z,59.80
2018-04-24T12:57:32.749Z,59.30
2018-04-24T13:00:01.089Z,59.50
2018-04-24T13:02:29.432Z,58.80
2018-04-24T13:04:58.595Z,59.60
2018-04-24T13:07:27.015Z,59.60
2018-04-24T13:09:56.107Z,59.10
2018-04-24T13:12:25.263Z,59.80
2018-04-24T13:14:53.673Z,59.80
2018-04-24T13:17:22.854Z,59.30
2018-04-24T13:19:51.944Z,58.70
2018-04-24T13:22:20.293Z,58.70
2018-04-24T13:24:48.635Z,58.40
2018-04-24T13:27:17.162Z,58.50
2018-04-24T13:29:46.762Z,58.50
2018-04-24T13:32:15.110Z,58.30
2018-04-24T13:34:43.842Z,58.20
2018-04-24T13:37:12.368Z,57.30
2018-04-24T13:39:41.010Z,56.10
2018-04-24T13:42:09.541Z,55.70
2018-04-24T13:44:38.079Z,55.80
2018-04-24T13:47:06.468Z,56.20
2018-04-24T13:49:35.029Z,56.00
2018-04-24T13:52:03.354Z,54.50
2018-04-24T13:54:32.655Z,55.50
2018-04-24T13:57:01.773Z,55.20
2018-04-24T13:59:30.128Z,55.20
2018-04-24T14:01:59.818Z,54.00
2018-04-24T14:04:28.564Z,53.90
2018-04-24T14:06:56.926Z,53.40
2018-04-24T14:09:25.370Z,53.10
2018-04-24T14:11:54.461Z,53.40
2018-04-24T14:14:23.800Z,52.90
2018-04-24T14:16:52.425Z,52.90
2018-04-24T14:19:20.848Z,52.90
2018-04-24T14:21:50.271Z,52.00
2018-04-24T14:24:18.741Z,52.00
2018-04-24T14:26:47.154Z,50.80
2018-04-24T14:29:15.621Z,50.40
2018-04-24T14:31:43.963Z,49.80
2018-04-24T14:34:13.169Z,50.50
2018-04-24T14:36:41.507Z,50.50
2018-04-24T14:39:09.956Z,50.50
2018-04-24T14:41:38.590Z,51.50
2018-04-24T14:44:06.948Z,52.40
2018-04-24T14:46:35.333Z,53.20
2018-04-24T14:49:03.681Z,51.00
2018-04-24T14:51:32.011Z,50.60
2018-04-24T14:54:01.675Z,49.00
2018-04-24T14:56:30.175Z,49.10
2018-04-24T14:58:58.675Z,49.60
2018-04-24T15:01:27.840Z,50.00
2018-04-24T15:03:56.406Z,49.90
2018-04-24T15:06:26.631Z,49.30
2018-04-24T15:08:55.019Z,49.00
2018-04-24T15:11:24.334Z,49.40
2018-04-24T15:13:54.333Z,49.80
2018-04-24T15:16:22.796Z,49.80
2018-04-24T15:18:51.249Z,49.30
2018-04-24T15:21:19.631Z,48.80
2018-04-24T15:23:48.809Z,48.70
2018-04-24T15:26:17.320Z,48.70
2018-04-24T15:28:45.623Z,48.80
2018-04-24T15:31:14.345Z,48.20
2018-04-24T15:33:42.757Z,48.40
2018-04-24T15:36:11.123Z,47.70
2018-04-24T15:38:40.458Z,48.80
2018-04-24T15:41:08.800Z,48.80
2018-04-24T15:43:37.155Z,48.50
2018-04-24T15:46:05.561Z,47.20
2018-04-24T15:48:34.276Z,46.30
2018-04-24T15:51:02.606Z,47.00
2018-04-24T15:53:31.791Z,44.90
2018-04-24T15:56:00.156Z,44.90
2018-04-24T15:58:28.503Z,45.20
2018-04-24T16:00:56.817Z,44.70
2018-04-24T16:03:25.163Z,44.50
2018-04-24T16:05:53.807Z,44.90
2018-04-24T16:08:23.151Z,44.20
2018-04-24T16:10:52.891Z,43.90
2018-04-24T16:13:22.466Z,43.90
2018-04-24T16:15:50.820Z,43.40
2018-04-24T16:18:19.216Z,43.10
2018-04-24T16:20:47.708Z,42.50
2018-04-24T16:23:15.999Z,42.40
2018-04-24T16:25:44.459Z,40.60
2018-04-24T16:28:12.846Z,39.80
2018-04-24T16:30:41.337Z,39.70
2018-04-24T16:33:09.978Z,40.20
2018-04-24T16:35:39.417Z,40.90
2018-04-24T16:38:07.862Z,40.90
2018-04-24T16:40:37.031Z,40.80
2018-04-24T16:43:06.206Z,41.30
2018-04-24T16:45:36.152Z,42.70
2018-04-24T16:48:06.481Z,43.50
2018-04-24T16:50:35.923Z,43.80
2018-04-24T16:53:04.341Z,43.80
2018-04-24T16:55:32.747Z,44.30
2018-04-24T16:58:01.873Z,45.80
2018-04-24T17:00:30.355Z,45.70
2018-04-24T17:02:58.989Z,45.80
2018-04-24T17:05:27.449Z,46.10
2018-04-24T17:07:55.745Z,46.80
2018-04-24T17:10:24.291Z,47.40
2018-04-24T17:12:52.860Z,47.50
2018-04-24T17:15:21.261Z,47.30
2018-04-24T17:17:49.787Z,46.90
2018-04-24T17:20:18.306Z,46.80
2018-04-24T17:22:46.733Z,47.00
2018-04-24T17:25:16.177Z,47.50
2018-04-24T17:27:44.505Z,47.50
2018-04-24T17:30:12.888Z,47.60
2018-04-24T17:32:41.259Z,47.60
2018-04-24T17:35:09.810Z,47.70
2018-04-24T17:37:38.500Z,48.00
2018-04-24T17:40:06.796Z,48.20
2018-04-24T17:42:35.185Z,48.90
2018-04-24T17:45:03.522Z,48.30
2018-04-24T17:47:31.861Z,48.20
2018-04-24T17:50:00.289Z,48.50
2018-04-24T17:52:29.723Z,48.90
2018-04-24T17:54:58.134Z,48.90
2018-04-24T17:57:27.333Z,49.20
2018-04-24T17:59:56.499Z,49.20
2018-04-24T18:02:24.928Z,49.20
2018-04-24T18:04:53.304Z,49.40
2018-04-24T18:07:21.819Z,49.60
2018-04-24T18:09:50.268Z,49.60
2018-04-24T18:12:19.353Z,50.40
2018-04-24T18:14:47.806Z,49.90
2018-04-24T18:17:16.305Z,50.00
2018-04-24T18:19:45.424Z,50.20
2018-04-24T18:22:13.873Z,50.20
2018-04-24T18:24:43.121Z,50.70
2018-04-24T18:27:11.635Z,50.70
2018-04-24T18:29:40.028Z,50.80
2018-04-24T18:32:09.069Z,50.70
2018-04-24T18:34:37.737Z,50.90
2018-04-24T18:37:06.846Z,51.20
2018-04-24T18:39:35.444Z,51.20
2018-04-24T18:42:03.951Z,51.30
2018-04-24T18:44:32.324Z,51.50
2018-04-24T18:47:00.881Z,52.00
2018-04-24T18:49:29.736Z,52.40
2018-04-24T18:51:59.319Z,52.40
2018-04-24T18:54:27.696Z,52.30
2018-04-24T18:56:56.103Z,52.30
2018-04-24T18:59:24.613Z,52.30
2018-04-24T19:01:52.954Z,52.40
2018-04-24T19:04:22.371Z,52.90
2018-04-24T19:06:50.784Z,52.80
2018-04-24T19:09:19.240Z,53.20
2018-04-24T19:11:47.638Z,53.80
2018-04-24T19:14:21.470Z,53.70
2018-04-24T19:16:49.866Z,53.80
2018-04-24T19:19:23.751Z,53.60
2018-04-24T19:21:52.360Z,53.90
2018-04-24T19:24:26.204Z,54.10
2018-04-24T19:26:54.566Z,54.50
2018-04-24T19:29:23.671Z,54.50
2018-04-24T19:31:57.695Z,54.50
2018-04-24T19:34:26.117Z,54.40
2018-04-24T19:36:54.544Z,54.90
2018-04-24T19:39:28.741Z,54.70
2018-04-24T19:41:57.863Z,55.00
2018-04-24T19:44:26.348Z,54.80
2018-04-24T19:46:54.716Z,55.20
2018-04-24T19:49:28.737Z,55.70
2018-04-24T19:51:57.158Z,55.80
2018-04-24T19:54:25.608Z,55.70
2018-04-24T19:56:53.990Z,56.70
2018-04-24T19:59:22.440Z,57.10
2018-04-24T20:01:50.763Z,57.80
2018-04-24T20:04:19.484Z,58.40
2018-04-24T20:06:48.610Z,58.00
2018-04-24T20:09:16.986Z,57.40
2018-04-24T20:11:45.362Z,57.40
2018-04-24T20:14:13.760Z,57.70
2018-04-24T20:16:42.377Z,57.50
2018-04-24T20:19:10.899Z,57.90
2018-04-24T20:21:40.233Z,58.00
2018-04-24T20:24:09.766Z,58.00
2018-04-24T20:26:38.233Z,59.00
2018-04-24T20:29:06.708Z,58.70
2018-04-24T20:31:35.111Z,59.10
2018-04-24T20:34:03.517Z,59.30
2018-04-24T20:36:32.657Z,59.50
2018-04-24T20:39:00.992Z,59.50
2018-04-24T20:41:30.132Z,60.00
2018-04-24T20:43:58.565Z,60.00
2018-04-24T20:46:27.721Z,60.00
2018-04-24T20:48:56.260Z,60.00
2018-04-24T20:51:24.722Z,60.20
2018-04-24T20:53:53.139Z,60.00
2018-04-24T20:56:21.524Z,60.50
2018-04-24T20:58:49.884Z,60.20
2018-04-24T21:01:18.468Z,60.40
2018-04-24T21:03:46.966Z,60.50
2018-04-24T21:06:15.386Z,61.20
2018-04-24T21:08:43.691Z,61.40
2018-04-24T21:11:12.837Z,61.70
2018-04-24T21:13:41.120Z,61.60
2018-04-24T21:16:09.532Z,62.00
2018-04-24T21:18:38.845Z,61.80
2018-04-24T21:21:07.929Z,61.90
2018-04-24T21:23:37.036Z,62.30
2018-04-24T21:26:06.586Z,62.40
2018-04-24T21:28:34.990Z,62.40
2018-04-24T21:31:03.331Z,62.40
2018-04-24T21:33:31.722Z,62.40
2018-04-24T21:36:00.081Z,62.70
2018-04-24T21:38:28.463Z,62.80
2018-04-24T21:40:56.788Z,62.70
2018-04-24T21:43:25.261Z,62.80
2018-04-24T21:45:53.613Z,62.80
2018-04-24T21:48:22.422Z,62.80
2018-04-24T21:50:50.802Z,63.20
2018-04-24T21:53:19.142Z,63.30
2018-04-24T21:55:48.502Z,62.70
2018-04-24T21:58:18.853Z,62.60
2018-04-24T22:00:47.301Z,62.60
2018-04-24T22:03:15.655Z,62.60
2018-04-24T22:05:44.001Z,62.80
2018-04-24T22:08:12.482Z,63.10
2018-04-24T22:10:40.983Z,63.10
2018-04-24T22:13:09.312Z,63.80
2018-04-24T22:15:38.412Z,63.40
2018-04-24T22:18:07.627Z,63.30
2018-04-24T22:20:35.996Z,63.30
2018-04-24T22:23:04.682Z,63.20
2018-04-24T22:25:32.996Z,63.30
2018-04-24T22:28:02.532Z,63.20
2018-04-24T22:30:30.929Z,63.40
2018-04-24T22:33:00.086Z,63.00
2018-04-24T22:35:28.387Z,63.00
2018-04-24T22:37:57.317Z,63.00
2018-04-24T22:40:25.839Z,62.90
2018-04-24T22:42:54.980Z,63.10
2018-04-24T22:45:24.028Z,63.10
2018-04-24T22:47:52.359Z,63.10
2018-04-24T22:50:20.651Z,63.20
2018-04-24T22:52:49.143Z,63.40
2018-04-24T22:55:17.632Z,63.00
2018-04-24T22:57:46.002Z,63.00
2018-04-24T23:00:16.964Z,62.90
2018-04-24T23:02:46.266Z,62.90
2018-04-24T23:05:14.694Z,63.00
2018-04-24T23:07:43.082Z,62.80
2018-04-24T23:10:10.777Z,62.60
2018-04-24T23:12:56.940Z,63.00
2018-04-24T23:15:43.061Z,63.10
2018-04-24T23:18:29.261Z,63.10
2018-04-24T23:20:56.712Z,62.20
2018-04-24T23:23:25.053Z,62.10
2018-04-24T23:25:53.348Z,62.30
2018-04-24T23:28:21.701Z,61.80
2018-04-24T23:30:50.796Z,61.50
2018-04-24T23:33:19.979Z,61.90
2018-04-24T23:35:48.256Z,61.90
2018-04-24T23:38:17.361Z,61.80
2018-04-24T23:40:46.551Z,61.60
2018-04-24T23:43:15.758Z,61.20
2018-04-24T23:45:44.817Z,61.50
2018-04-24T23:48:13.147Z,61.40
2018-04-24T23:50:41.423Z,61.60
2018-04-24T23:53:09.756Z,61.50
2018-04-24T23:55:39.443Z,61.50
2018-04-24T23:58:07.733Z,61.40
